Time;durP1;ratioP1;P1;durP2;ratioP2;P2;SDS_P1;SDS_P2;PMS_P1;PMS_P2;Temp;Humidity;BMP_temperature;BMP_pressure;BME280_temperature;BME280_humidity;BME280_pressure;Samples;Min_cycle;Max_cycle;Signal;HPM_P1;HPM_P2
2023/07/14 00:02:22;;;;;;;15.30;10.75;;;;;;;22.48;81.63;97436.00;10284201;28;20120;-53
2023/07/14 00:07:21;;;;;;;17.77;10.77;;;;;;;22.51;80.39;97393.53;10284450;28;20483;-50
2023/07/14 00:12:21;;;;;;;16.33;10.57;;;;;;;22.33;79.59;97416.53;10283722;28;20502;-50
2023/07/14 00:17:19;;;;;;;18.55;10.20;;;;;;;22.43;78.85;97398.38;10284358;28;20137;-51
2023/07/14 00:22:18;;;;;;;15.88;11.40;;;;;;;22.29;81.08;97410.53;10284751;28;20388;-51
2023/07/14 00:27:20;;;;;;;18.27;11.05;;;;;;;22.22;81.16;97410.97;10293374;28;20037;-51
2023/07/14 00:32:22;;;;;;;16.45;10.75;;;;;;;22.11;81.93;97385.13;10283810;28;20137;-50
2023/07/14 00:37:22;;;;;;;21.20;11.20;;;;;;;22.10;81.07;97372.81;10283783;28;20502;-50
2023/07/14 00:42:21;;;;;;;11.88;9.40;;;;;;;22.03;80.45;97389.94;10283842;28;20077;-52
2023/07/14 00:47:27;;;;;;;14.80;9.25;;;;;;;22.01;79.54;97382.09;10283141;28;20033;-50
2023/07/14 00:52:33;;;;;;;17.80;11.25;;;;;;;22.12;78.58;97369.16;10283560;28;20121;-51
2023/07/14 00:57:34;;;;;;;15.48;9.77;;;;;;;22.11;78.31;97359.53;10301744;28;20141;-52
2023/07/14 01:02:33;;;;;;;19.98;9.77;;;;;;;22.00;77.90;97384.84;10283587;28;20076;-52
2023/07/14 01:07:41;;;;;;;17.67;10.52;;;;;;;21.85;79.13;97395.25;10282793;28;20282;-52
2023/07/14 01:12:45;;;;;;;19.52;11.07;;;;;;;21.65;80.98;97403.34;10283201;28;20065;-52
2023/07/14 01:17:46;;;;;;;17.08;11.65;;;;;;;21.55;82.31;97408.25;10282737;28;20129;-49
2023/07/14 01:22:48;;;;;;;17.48;11.57;;;;;;;21.41;83.51;97416.00;10282467;28;20502;-49
2023/07/14 01:27:47;;;;;;;14.63;11.13;;;;;;;21.46;83.14;97374.38;10282714;28;20488;-52
2023/07/14 01:32:49;;;;;;;24.63;11.90;;;;;;;21.37;84.36;97398.59;10281742;28;20084;-51
2023/07/14 01:37:48;;;;;;;18.85;12.00;;;;;;;21.41;84.30;97392.25;10282638;28;20168;-50
2023/07/14 01:42:54;;;;;;;17.70;11.70;;;;;;;21.42;84.72;97386.88;10282671;28;20073;-52
2023/07/14 01:47:57;;;;;;;18.58;11.10;;;;;;;21.21;85.66;97394.09;10282035;28;20061;-51
2023/07/14 01:53:02;;;;;;;18.98;11.38;;;;;;;21.40;85.08;97427.47;10287021;28;20129;-50
2023/07/14 01:58:07;;;;;;;17.58;12.32;;;;;;;21.46;84.50;97445.66;10288461;28;20537;-50
2023/07/14 02:03:09;;;;;;;17.23;11.50;;;;;;;21.49;84.74;97493.03;10289131;28;20126;-51
2023/07/14 02:08:13;;;;;;;16.90;10.75;;;;;;;21.49;84.41;97507.06;10289592;28;20069;-52
2023/07/14 02:13:13;;;;;;;18.10;11.70;;;;;;;21.47;84.23;97516.84;10288897;28;20598;-51
2023/07/14 02:18:17;;;;;;;18.67;10.80;;;;;;;21.57;83.74;97540.16;10288881;28;20145;-50
2023/07/14 02:23:20;;;;;;;15.05;10.07;;;;;;;21.67;83.03;97547.56;10291814;28;20065;-50
2023/07/14 02:28:19;;;;;;;13.45;9.93;;;;;;;21.70;81.84;97550.06;10291747;28;20068;-52
2023/07/14 02:33:34;;;;;;;16.70;9.30;;;;;;;21.81;80.72;97561.91;10290762;28;20133;-52
2023/07/14 02:38:33;;;;;;;17.92;10.05;;;;;;;21.99;78.32;97571.56;10291435;28;20475;-49
2023/07/14 02:43:32;;;;;;;18.42;9.75;;;;;;;22.00;77.83;97572.44;10291945;28;20080;-52
2023/07/14 02:48:34;;;;;;;15.95;9.02;;;;;;;22.00;77.90;97588.28;10291328;28;20148;-51
2023/07/14 02:53:33;;;;;;;14.80;9.15;;;;;;;22.10;77.25;97581.59;10289894;28;20477;-51
2023/07/14 02:58:33;;;;;;;14.50;9.90;;;;;;;22.18;76.01;97617.28;10290078;28;20561;-52
2023/07/14 03:03:35;;;;;;;14.00;9.02;;;;;;;22.03;75.16;97598.69;10288474;28;20072;-52
2023/07/14 03:08:34;;;;;;;16.70;8.50;;;;;;;22.15;74.19;97629.78;10290149;28;20053;-52
2023/07/14 03:13:35;;;;;;;15.13;8.48;;;;;;;22.28;73.89;97646.75;10290042;28;20081;-51
2023/07/14 03:18:33;;;;;;;18.88;8.77;;;;;;;22.42;73.01;97648.69;10290029;28;20514;-52
2023/07/14 03:23:34;;;;;;;17.17;10.23;;;;;;;22.53;72.71;97667.53;10285897;28;20554;-50
2023/07/14 03:28:34;;;;;;;15.52;9.77;;;;;;;22.71;72.46;97694.81;10285711;28;20125;-51
2023/07/14 03:33:34;;;;;;;17.25;9.18;;;;;;;22.72;71.68;97683.31;10285349;28;20494;-52
2023/07/14 03:38:42;;;;;;;14.57;8.93;;;;;;;22.72;70.72;97683.31;10285644;28;20641;-51
2023/07/14 03:43:41;;;;;;;20.05;9.80;;;;;;;23.11;69.78;97729.84;10285270;28;20072;-50
2023/07/14 03:48:40;;;;;;;19.00;10.23;;;;;;;23.16;68.91;97730.47;10285538;28;20030;-52
2023/07/14 03:53:39;;;;;;;20.45;10.85;;;;;;;23.61;68.07;97778.47;10284675;28;20036;-51
2023/07/14 03:58:39;;;;;;;15.25;10.23;;;;;;;23.72;67.01;97794.63;10285326;28;20077;-52
2023/07/14 04:03:38;;;;;;;17.48;10.38;;;;;;;24.03;66.74;97822.13;10285660;28;20128;-52
2023/07/14 04:08:38;;;;;;;18.20;10.98;;;;;;;24.29;66.65;97849.91;10284886;28;20248;-52
2023/07/14 04:13:37;;;;;;;19.52;11.55;;;;;;;24.63;66.22;97878.03;10283874;28;20127;-51
2023/07/14 04:18:37;;;;;;;15.73;10.20;;;;;;;24.45;66.64;97901.16;10284855;28;20129;-52
2023/07/14 04:23:36;;;;;;;15.57;10.15;;;;;;;24.69;67.11;97917.50;10284421;28;20069;-52
2023/07/14 04:28:36;;;;;;;16.83;10.90;;;;;;;24.58;67.46;97946.44;10284397;28;20781;-49
2023/07/14 04:33:35;;;;;;;16.48;10.38;;;;;;;24.67;67.81;97974.28;10283762;28;20129;-52
2023/07/14 04:38:35;;;;;;;18.60;11.45;;;;;;;24.39;68.73;97962.50;10284128;28;20542;-52
2023/07/14 04:43:34;;;;;;;23.25;10.77;;;;;;;24.56;68.75;97981.94;10283794;28;20388;-51
2023/07/14 04:48:33;;;;;;;15.70;10.48;;;;;;;24.68;68.25;97989.25;10282882;28;20434;-52
2023/07/14 04:53:32;;;;;;;19.13;10.55;;;;;;;24.75;68.35;97989.75;10282281;28;20396;-52
2023/07/14 04:58:31;;;;;;;17.38;10.85;;;;;;;24.63;68.87;97996.59;10282965;28;20129;-50
2023/07/14 05:03:30;;;;;;;18.48;10.75;;;;;;;24.51;69.18;97998.13;10282553;28;20038;-50
2023/07/14 05:08:29;;;;;;;16.45;11.50;;;;;;;24.95;68.35;97994.03;10282250;28;20451;-52
2023/07/14 05:13:28;;;;;;;15.55;10.52;;;;;;;25.09;67.84;97983.47;10282353;28;20044;-52
2023/07/14 05:18:27;;;;;;;17.70;11.55;;;;;;;24.96;67.78;97988.59;10282458;28;20126;-50
2023/07/14 05:23:28;;;;;;;15.70;11.52;;;;;;;24.81;68.36;97966.41;10284811;28;20503;-50
2023/07/14 05:28:27;;;;;;;18.73;11.73;;;;;;;24.88;68.57;97970.47;10292869;28;20069;-53
2023/07/14 05:33:26;;;;;;;18.45;11.35;;;;;;;24.94;68.18;97969.25;10292447;28;20053;-53
2023/07/14 05:38:26;;;;;;;18.08;10.85;;;;;;;25.12;67.97;97956.75;10290123;28;20427;-53
2023/07/14 05:43:27;;;;;;;20.17;11.73;;;;;;;25.12;67.49;97940.81;10292720;28;20054;-51
2023/07/14 05:48:26;;;;;;;16.73;11.95;;;;;;;25.27;67.05;97937.28;10293010;28;20068;-50
2023/07/14 05:53:27;;;;;;;17.20;12.27;;;;;;;25.40;66.67;97933.91;10292660;28;20069;-51
2023/07/14 05:58:26;;;;;;;17.42;11.35;;;;;;;25.22;66.80;97936.69;10294201;28;20567;-51
2023/07/14 06:03:25;;;;;;;19.02;13.02;;;;;;;25.53;66.63;97938.41;10294429;28;20671;-51
2023/07/14 06:08:24;;;;;;;19.92;12.60;;;;;;;25.55;66.49;97938.38;10294891;28;20450;-52
2023/07/14 06:13:22;;;;;;;18.25;13.20;;;;;;;25.57;66.47;97928.47;10294139;28;20052;-52
2023/07/14 06:18:22;;;;;;;22.15;13.30;;;;;;;25.73;65.74;97934.59;10293839;28;20014;-52
2023/07/14 06:23:21;;;;;;;19.38;13.65;;;;;;;26.02;65.55;97916.03;10290733;28;20737;-50
2023/07/14 06:28:20;;;;;;;20.15;13.13;;;;;;;26.23;64.60;97870.44;10291088;28;20129;-52
2023/07/14 06:33:19;;;;;;;20.40;13.60;;;;;;;26.42;63.21;97896.75;10280341;28;21305;-52
2023/07/14 06:38:18;;;;;;;25.92;14.43;;;;;;;26.45;63.47;97902.75;10288792;28;20506;-49
2023/07/14 06:43:17;;;;;;;30.98;15.15;;;;;;;26.73;63.37;97903.66;10289573;28;20443;-51
2023/07/14 06:48:17;;;;;;;21.40;14.27;;;;;;;26.58;61.69;97903.69;10286832;28;20048;-52
2023/07/14 06:53:16;;;;;;;22.10;14.82;;;;;;;26.67;62.33;97907.53;10282306;28;20124;-52
2023/07/14 06:58:15;;;;;;;18.85;14.90;;;;;;;26.72;61.41;97893.94;10281540;28;20133;-52
2023/07/14 07:03:14;;;;;;;20.77;14.32;;;;;;;26.81;62.10;97898.66;10287898;28;20073;-51
2023/07/14 07:08:15;;;;;;;17.77;14.88;;;;;;;26.82;61.32;97891.56;10288757;28;20030;-52
2023/07/14 07:13:15;;;;;;;22.00;15.80;;;;;;;27.22;61.55;97892.47;10284954;28;20065;-52
2023/07/14 07:18:14;;;;;;;18.27;14.38;;;;;;;27.53;59.68;97882.44;10286721;28;20128;-50
2023/07/14 07:23:13;;;;;;;18.50;13.95;;;;;;;27.55;57.92;97873.38;10286283;28;20551;-52
2023/07/14 07:28:12;;;;;;;21.13;14.05;;;;;;;27.62;57.53;97874.66;10287332;28;20028;-52
2023/07/14 07:33:12;;;;;;;19.38;14.20;;;;;;;27.35;57.80;97874.72;10285732;28;20042;-52
2023/07/14 07:38:12;;;;;;;19.38;14.48;;;;;;;27.57;57.18;97875.94;10286592;28;20117;-50
2023/07/14 07:43:11;;;;;;;21.35;14.60;;;;;;;27.78;58.32;97852.28;10287798;28;20512;-52
2023/07/14 07:48:10;;;;;;;22.70;14.75;;;;;;;27.91;56.54;97869.13;10286285;28;20800;-51
2023/07/14 07:53:09;;;;;;;22.73;14.50;;;;;;;27.99;55.63;97852.59;10286375;28;20025;-52
2023/07/14 07:58:08;;;;;;;25.10;14.88;;;;;;;28.16;54.82;97846.94;10287492;28;20152;-52
2023/07/14 08:03:06;;;;;;;64.38;16.40;;;;;;;27.95;55.56;97848.44;10286011;28;20125;-51
2023/07/14 08:08:05;;;;;;;19.17;13.88;;;;;;;28.00;55.00;97846.28;10286274;28;20026;-50
2023/07/14 08:13:04;;;;;;;19.90;13.77;;;;;;;28.20;55.46;97837.75;10286347;28;20026;-51
2023/07/14 08:18:06;;;;;;;20.83;13.25;;;;;;;28.13;53.08;97812.47;10287888;28;20423;-53
2023/07/14 08:23:05;;;;;;;20.25;11.93;;;;;;;28.23;52.46;97831.34;10286167;28;20128;-52
2023/07/14 08:28:04;;;;;;;19.17;13.13;;;;;;;28.24;52.98;97822.38;10286259;28;20049;-52
2023/07/14 08:33:03;;;;;;;17.70;12.77;;;;;;;28.54;52.44;97816.63;10284870;28;20081;-52
2023/07/14 08:38:02;;;;;;;19.63;11.35;;;;;;;28.43;50.53;97816.53;10285970;28;20038;-52
2023/07/14 08:43:18;;;;;;;17.17;11.50;;;;;;;28.27;49.68;97818.63;10286045;28;20852;-51
2023/07/14 08:48:37;;;;;;;16.00;11.32;;;;;;;28.52;50.23;97809.69;10287734;28;20108;-53
2023/07/14 08:53:37;;;;;;;16.63;11.25;;;;;;;28.54;49.57;97813.09;10284113;28;20065;-53
2023/07/14 08:58:40;;;;;;;13.05;9.75;;;;;;;28.71;48.29;97810.06;10284492;28;20053;-54
2023/07/14 09:03:46;;;;;;;20.80;10.68;;;;;;;28.71;48.03;97811.88;10292651;28;20072;-52
2023/07/14 09:08:45;;;;;;;17.02;10.95;;;;;;;28.84;49.31;97772.63;10291875;28;20080;-52
2023/07/14 09:14:11;;;;;;;14.00;10.45;;;;;;;29.18;48.61;97802.09;10291842;28;20057;-53
2023/07/14 09:19:19;;;;;;;18.63;10.57;;;;;;;29.21;46.22;97797.41;10292360;28;20120;-52
2023/07/14 09:24:54;;;;;;;15.63;11.18;;;;;;;29.41;47.31;97795.03;10284864;28;20121;-52
2023/07/14 09:29:55;;;;;;;20.42;11.82;;;;;;;29.68;48.52;97786.69;10290123;28;20074;-54
2023/07/14 09:34:58;;;;;;;13.93;10.43;;;;;;;29.91;46.54;97795.63;10291806;28;20117;-53
2023/07/14 09:40:19;;;;;;;14.23;10.68;;;;;;;30.11;46.38;97783.28;10292288;28;20069;-53
2023/07/14 09:45:22;;;;;;;19.73;11.77;;;;;;;30.38;45.43;97782.06;10287542;28;20085;-52
2023/07/14 09:50:22;;;;;;;15.05;11.25;;;;;;;30.30;46.15;97778.19;10289384;28;21371;-53
2023/07/14 09:55:23;;;;;;;15.57;11.90;;;;;;;30.30;46.63;97775.50;10290168;28;20065;-53
2023/07/14 10:00:25;;;;;;;19.40;12.43;;;;;;;30.26;45.86;97784.75;10290981;28;20126;-51
2023/07/14 10:05:30;;;;;;;19.42;12.45;;;;;;;30.37;45.62;97767.78;10290735;28;20483;-53
2023/07/14 10:10:34;;;;;;;19.83;12.82;;;;;;;30.49;45.64;97756.13;10289511;28;20077;-50
2023/07/14 10:15:38;;;;;;;17.88;12.38;;;;;;;30.86;45.06;97761.06;10288732;28;20829;-53
2023/07/14 10:20:39;;;;;;;15.55;12.10;;;;;;;30.60;45.01;97765.94;10289835;28;20180;-53
2023/07/14 10:25:38;;;;;;;17.17;12.80;;;;;;;30.35;45.50;97756.34;10283589;28;20141;-52
2023/07/14 10:31:04;;;;;;;18.95;12.80;;;;;;;30.36;45.98;97750.03;10291432;28;20076;-53
2023/07/14 10:36:12;;;;;;;16.70;11.65;;;;;;;30.37;47.06;97742.84;10315188;28;20077;-52
2023/07/14 10:41:14;;;;;;;18.40;11.48;;;;;;;30.61;46.38;97714.09;10285688;28;20065;-52
2023/07/14 10:46:18;;;;;;;20.92;12.50;;;;;;;30.80;45.12;97728.63;10280625;28;20264;-52
2023/07/14 10:51:36;;;;;;;21.98;12.75;;;;;;;30.75;45.48;97735.19;10285146;28;20064;-49
2023/07/14 10:56:49;;;;;;;17.42;12.30;;;;;;;30.95;45.43;97724.63;10288238;28;20081;-52
2023/07/14 11:02:10;;;;;;;19.33;12.40;;;;;;;31.35;45.29;97718.53;10288238;28;20121;-52
2023/07/14 11:07:18;;;;;;;20.98;12.30;;;;;;;31.37;44.20;97684.41;10288032;28;20057;-53
2023/07/14 11:12:39;;;;;;;16.75;11.55;;;;;;;31.80;43.66;97668.09;10303384;28;20073;-51
2023/07/14 11:18:11;;;;;;;15.20;11.20;;;;;;;32.01;43.16;97702.88;10288515;28;20120;-53
2023/07/14 11:23:44;;;;;;;18.45;11.98;;;;;;;31.86;42.95;97712.31;10288062;28;20133;-53
2023/07/14 11:28:49;;;;;;;21.67;14.90;;;;;;;31.72;42.51;97699.25;10295446;28;20061;-51
2023/07/14 11:34:07;;;;;;;15.10;11.20;;;;;;;31.91;43.16;97698.47;10287451;28;20152;-52
2023/07/14 11:39:19;;;;;;;16.50;11.90;;;;;;;32.07;41.27;97704.19;10287747;28;20120;-52
2023/07/14 11:44:21;;;;;;;14.15;10.48;;;;;;;31.96;42.14;97664.84;10287615;28;20455;-52
2023/07/14 11:49:36;;;;;;;16.73;12.18;;;;;;;32.32;42.40;97692.09;10302062;28;20144;-55
2023/07/14 11:54:56;;;;;;;15.93;11.20;;;;;;;32.19;41.51;97697.72;10287804;28;20057;-54
2023/07/14 11:59:59;;;;;;;15.73;11.10;;;;;;;32.41;41.43;97699.31;10280286;28;20120;-53
2023/07/14 12:05:20;;;;;;;17.33;11.20;;;;;;;32.41;39.86;97668.88;10286026;28;20132;-51
2023/07/14 12:10:39;;;;;;;23.95;11.68;;;;;;;32.57;40.58;97687.16;10296751;28;20136;-51
2023/07/14 12:15:44;;;;;;;23.25;12.45;;;;;;;32.52;40.63;97678.66;10286136;28;20539;-53
2023/07/14 12:20:43;;;;;;;15.52;11.35;;;;;;;32.66;40.38;97682.78;10286100;28;20125;-53
2023/07/14 12:25:48;;;;;;;16.23;11.52;;;;;;;33.14;40.54;97666.63;10284790;28;20077;-53
2023/07/14 12:30:51;;;;;;;17.80;11.35;;;;;;;33.24;38.84;97656.66;10283879;28;20124;-53
2023/07/14 12:35:51;;;;;;;19.90;11.57;;;;;;;33.30;38.76;97668.66;10274531;28;20140;-51
2023/07/14 12:40:54;;;;;;;15.90;11.07;;;;;;;33.02;40.42;97619.31;10279232;28;20125;-53
2023/07/14 12:45:54;;;;;;;14.48;10.27;;;;;;;33.01;39.77;97645.38;10284015;28;20535;-53
2023/07/14 12:50:55;;;;;;;12.05;9.70;;;;;;;33.41;38.69;97652.34;10279567;28;20138;-52
2023/07/14 12:55:54;;;;;;;18.20;11.23;;;;;;;33.28;38.54;97656.34;10279558;28;20129;-53
2023/07/14 13:00:54;;;;;;;14.50;10.77;;;;;;;33.29;39.35;97655.38;10284581;28;20032;-54
2023/07/14 13:05:53;;;;;;;22.27;10.43;;;;;;;32.88;39.97;97644.84;10282281;28;20158;-54
2023/07/14 13:10:53;;;;;;;14.40;10.75;;;;;;;32.61;40.89;97634.84;10285311;28;20184;-54
2023/07/14 13:15:57;;;;;;;14.82;9.88;;;;;;;32.71;41.11;97638.38;10285838;28;20072;-53
2023/07/14 13:20:57;;;;;;;12.57;9.70;;;;;;;32.84;41.04;97641.59;10285267;28;20124;-53
2023/07/14 13:26:05;;;;;;;17.10;9.43;;;;;;;32.90;40.84;97647.38;10284226;28;20172;-52
2023/07/14 13:31:17;;;;;;;15.77;9.60;;;;;;;32.87;41.02;97650.38;10301087;28;20080;-52
2023/07/14 13:36:26;;;;;;;15.35;9.95;;;;;;;32.35;41.22;97602.34;10285507;28;20062;-53
2023/07/14 13:41:28;;;;;;;15.10;9.88;;;;;;;32.73;40.46;97636.38;10284884;28;20129;-53
2023/07/14 13:46:28;;;;;;;16.88;9.73;;;;;;;32.92;40.31;97642.72;10288299;28;20487;-53
2023/07/14 13:51:29;;;;;;;14.10;10.15;;;;;;;32.93;39.78;97639.06;10291812;28;20476;-52
2023/07/14 13:56:28;;;;;;;15.55;8.50;;;;;;;32.67;40.55;97634.28;10291787;28;20069;-53
2023/07/14 14:01:28;;;;;;;12.70;8.82;;;;;;;32.62;40.86;97634.72;10291332;28;20038;-53
2023/07/14 14:06:28;;;;;;;12.75;9.50;;;;;;;32.75;40.37;97639.78;10291637;28;20070;-55
2023/07/14 14:11:27;;;;;;;12.50;8.45;;;;;;;32.60;40.10;97617.88;10290995;28;20554;-54
2023/07/14 14:16:26;;;;;;;14.98;9.20;;;;;;;33.15;40.00;97637.88;10290870;28;20414;-54
2023/07/14 14:21:25;;;;;;;15.55;9.93;;;;;;;32.86;40.19;97641.47;10290162;28;20026;-53
2023/07/14 14:26:24;;;;;;;19.05;9.77;;;;;;;32.86;40.53;97636.09;10288803;28;20045;-52
2023/07/14 14:31:23;;;;;;;14.73;8.60;;;;;;;32.44;41.24;97641.78;10289215;28;20434;-52
2023/07/14 14:36:22;;;;;;;14.10;9.52;;;;;;;32.35;41.52;97642.63;10290185;28;20018;-53
2023/07/14 14:41:27;;;;;;;16.13;8.77;;;;;;;32.68;42.13;97643.19;10290960;28;20697;-53
2023/07/14 14:46:26;;;;;;;13.80;8.15;;;;;;;32.80;41.57;97632.13;10290715;28;20473;-53
2023/07/14 14:51:25;;;;;;;12.80;8.35;;;;;;;32.67;40.91;97631.59;10290321;28;20068;-53
2023/07/14 14:56:28;;;;;;;12.25;8.80;;;;;;;32.33;41.79;97623.94;10289620;28;20523;-53
2023/07/14 15:01:35;;;;;;;17.10;8.48;;;;;;;32.23;42.80;97631.16;10287123;28;20156;-53
2023/07/14 15:06:34;;;;;;;14.23;8.60;;;;;;;32.19;40.60;97629.75;10288635;28;20072;-50
2023/07/14 15:11:33;;;;;;;14.05;7.53;;;;;;;32.09;42.48;97636.97;10288193;28;20751;-50
2023/07/14 15:16:32;;;;;;;14.07;6.88;;;;;;;31.87;42.95;97628.09;10288676;28;20546;-52
2023/07/14 15:21:31;;;;;;;11.05;6.60;;;;;;;32.03;42.06;97626.72;10289141;28;20522;-52
2023/07/14 15:26:35;;;;;;;10.70;6.20;;;;;;;31.80;41.68;97641.25;10288767;28;20403;-53
2023/07/14 15:31:42;;;;;;;10.15;5.80;;;;;;;31.25;42.96;97640.75;10283917;28;20137;-52
2023/07/14 15:36:42;;;;;;;21.90;5.93;;;;;;;31.10;43.60;97645.63;10289211;28;20078;-51
2023/07/14 15:41:43;;;;;;;9.00;5.50;;;;;;;30.99;43.15;97651.06;10287238;28;20118;-53
2023/07/14 15:46:42;;;;;;;10.57;6.20;;;;;;;31.01;43.45;97643.75;10288102;28;20073;-52
2023/07/14 15:51:43;;;;;;;17.10;9.40;;;;;;;30.95;43.30;97644.22;10286358;28;20026;-51
2023/07/14 15:56:43;;;;;;;10.10;5.93;;;;;;;30.80;43.69;97629.50;10285230;28;20495;-53
2023/07/14 16:01:42;;;;;;;10.60;5.70;;;;;;;30.99;43.41;97647.53;10284142;28;20626;-51
2023/07/14 16:06:41;;;;;;;11.40;6.10;;;;;;;31.17;43.75;97653.97;10284411;28;20037;-51
2023/07/14 16:11:40;;;;;;;8.52;5.60;;;;;;;31.18;43.33;97644.94;10284340;28;20165;-53
2023/07/14 16:16:39;;;;;;;8.60;5.70;;;;;;;31.26;43.06;97645.13;10283338;28;20133;-52
2023/07/14 16:21:47;;;;;;;11.45;5.68;;;;;;;31.35;42.92;97648.81;10283612;28;20137;-52
2023/07/14 16:26:48;;;;;;;8.95;5.07;;;;;;;31.39;41.61;97652.94;10284348;28;20136;-52
2023/07/14 16:31:47;;;;;;;9.48;5.65;;;;;;;31.43;42.60;97651.69;10283689;28;20085;-52
2023/07/14 16:36:47;;;;;;;12.13;6.32;;;;;;;31.57;41.71;97654.03;10284601;28;20053;-52
2023/07/14 16:41:47;;;;;;;11.73;6.10;;;;;;;31.71;41.78;97658.19;10285086;28;20496;-52
2023/07/14 16:46:48;;;;;;;10.88;5.88;;;;;;;31.50;41.17;97662.72;10283840;28;20472;-53
2023/07/14 16:51:50;;;;;;;10.77;5.97;;;;;;;31.35;41.81;97671.13;10283624;28;20065;-53
2023/07/14 16:56:50;;;;;;;11.60;6.10;;;;;;;31.18;42.58;97664.56;10284116;28;20053;-52
2023/07/14 17:01:50;;;;;;;12.50;5.95;;;;;;;30.63;42.24;97610.34;10278203;28;20189;-53
2023/07/14 17:06:50;;;;;;;11.50;5.40;;;;;;;31.05;43.04;97674.63;10278840;28;20176;-53
2023/07/14 17:11:50;;;;;;;12.75;5.47;;;;;;;30.98;42.17;97670.78;10282494;28;20061;-53
2023/07/14 17:16:49;;;;;;;12.02;5.72;;;;;;;30.90;42.55;97686.66;10277792;28;20134;-53
2023/07/14 17:21:55;;;;;;;9.98;6.03;;;;;;;30.88;42.65;97677.88;10284647;28;20145;-53
2023/07/14 17:26:54;;;;;;;9.45;5.97;;;;;;;30.69;42.87;97676.78;10289978;28;20138;-51
2023/07/14 17:31:54;;;;;;;9.65;6.03;;;;;;;30.52;43.02;97675.53;10284201;28;20125;-52
2023/07/14 17:36:54;;;;;;;9.75;6.40;;;;;;;30.43;43.20;97699.56;10287016;28;20130;-54
2023/07/14 17:41:53;;;;;;;9.20;6.47;;;;;;;30.28;43.83;97702.50;10287215;28;20181;-54
2023/07/14 17:46:52;;;;;;;13.20;8.38;;;;;;;29.99;46.63;97712.03;10290067;28;20056;-52
2023/07/14 17:51:52;;;;;;;18.33;8.75;;;;;;;29.53;49.13;97670.22;10290077;28;20145;-52
2023/07/14 17:56:52;;;;;;;14.85;8.60;;;;;;;29.53;50.40;97713.00;10289725;28;20145;-52
2023/07/14 18:01:57;;;;;;;14.00;8.38;;;;;;;29.21;51.28;97714.53;10288276;28;20122;-54
2023/07/14 18:06:57;;;;;;;12.32;7.68;;;;;;;28.98;52.13;97723.50;10289749;28;20169;-53
2023/07/14 18:11:56;;;;;;;13.60;7.95;;;;;;;28.67;52.06;97734.69;10288964;28;20097;-53
2023/07/14 18:16:55;;;;;;;13.65;8.00;;;;;;;28.40;52.89;97748.22;10297221;28;20188;-50
2023/07/14 18:21:54;;;;;;;11.40;7.53;;;;;;;28.07;54.42;97751.56;10286822;28;20041;-51
2023/07/14 18:26:53;;;;;;;16.23;8.32;;;;;;;27.85;55.01;97768.22;10288438;28;20076;-51
2023/07/14 18:31:52;;;;;;;10.23;8.18;;;;;;;27.64;56.05;97764.41;10287438;28;20061;-50
2023/07/14 18:36:51;;;;;;;12.80;7.68;;;;;;;27.41;56.90;97769.50;10288384;28;20076;-51
2023/07/14 18:41:53;;;;;;;14.45;8.52;;;;;;;27.18;57.09;97773.75;10287000;28;20033;-50
2023/07/14 18:46:52;;;;;;;12.15;7.70;;;;;;;26.88;58.27;97764.22;10286822;28;20057;-52
2023/07/14 18:51:51;;;;;;;13.55;8.43;;;;;;;26.60;60.29;97788.28;10295270;28;20034;-52
2023/07/14 18:56:51;;;;;;;12.25;8.40;;;;;;;26.49;60.29;97796.97;10287478;28;20054;-51
2023/07/14 19:01:50;;;;;;;12.15;8.90;;;;;;;26.29;61.49;97803.56;10287488;28;20479;-51
2023/07/14 19:06:50;;;;;;;15.68;8.80;;;;;;;26.10;62.03;97807.38;10286747;28;20065;-52
2023/07/14 19:11:58;;;;;;;11.93;8.93;;;;;;;26.02;62.69;97808.78;10287354;28;20087;-52
2023/07/14 19:16:57;;;;;;;15.03;9.20;;;;;;;25.93;62.87;97810.25;10286692;28;20144;-53
2023/07/14 19:21:56;;;;;;;15.48;9.07;;;;;;;25.79;62.97;97794.31;10286409;28;20144;-52
2023/07/14 19:26:55;;;;;;;12.73;8.55;;;;;;;25.63;63.18;97797.91;10285592;28;20040;-52
2023/07/14 19:31:58;;;;;;;13.55;8.82;;;;;;;25.58;63.36;97804.47;10240943;28;20056;-53
2023/07/14 19:36:58;;;;;;;14.10;8.63;;;;;;;25.49;63.66;97814.66;10284457;28;20080;-50
2023/07/14 19:41:58;;;;;;;11.95;8.90;;;;;;;25.33;63.83;97812.06;10286176;28;20157;-52
2023/07/14 19:46:56;;;;;;;16.80;8.90;;;;;;;25.24;63.92;97807.28;10286488;28;20065;-52
2023/07/14 19:51:56;;;;;;;24.52;9.35;;;;;;;25.15;64.08;97802.53;10284973;28;20116;-51
2023/07/14 19:56:55;;;;;;;16.15;9.55;;;;;;;25.08;63.93;97801.19;10284931;28;20077;-52
2023/07/14 20:01:55;;;;;;;14.40;10.10;;;;;;;25.02;65.73;97801.56;10284951;28;20339;-52
2023/07/14 20:06:54;;;;;;;12.68;9.68;;;;;;;24.80;66.73;97784.22;10284983;28;20073;-51
2023/07/14 20:11:53;;;;;;;12.32;9.05;;;;;;;24.89;66.67;97804.06;10285727;28;20072;-52
2023/07/14 20:16:52;;;;;;;12.43;9.13;;;;;;;24.81;66.82;97814.25;10284068;28;20068;-52
2023/07/14 20:21:51;;;;;;;13.80;9.65;;;;;;;24.79;66.90;97822.31;10284996;28;20042;-52
2023/07/14 20:26:53;;;;;;;14.02;9.88;;;;;;;24.70;67.61;97822.81;10287315;28;20061;-51
2023/07/14 20:31:52;;;;;;;14.38;10.38;;;;;;;24.60;68.33;97816.34;10287149;28;20076;-51
2023/07/14 20:36:51;;;;;;;12.85;9.02;;;;;;;24.37;69.11;97799.06;10288501;28;20483;-52
2023/07/14 20:41:51;;;;;;;15.35;9.73;;;;;;;24.42;69.31;97827.03;10287189;28;20419;-52
2023/07/14 20:46:50;;;;;;;16.13;11.05;;;;;;;24.29;70.38;97818.06;10287514;28;20061;-50
2023/07/14 20:51:50;;;;;;;12.23;9.05;;;;;;;23.71;74.19;97814.13;10287245;28;20038;-53
2023/07/14 20:56:49;;;;;;;15.02;9.90;;;;;;;23.53;75.89;97834.47;10285949;28;20080;-54
2023/07/14 21:01:48;;;;;;;12.63;9.43;;;;;;;23.47;75.74;97840.13;10286669;28;20034;-53
2023/07/14 21:06:47;;;;;;;13.50;8.68;;;;;;;23.46;75.50;97832.19;10287362;28;20049;-52
2023/07/14 21:11:46;;;;;;;14.98;9.68;;;;;;;23.53;74.91;97837.13;10286472;28;20033;-51
2023/07/14 21:16:45;;;;;;;13.90;9.23;;;;;;;23.57;74.87;97833.38;10286296;28;20070;-53
2023/07/14 21:21:44;;;;;;;14.20;9.98;;;;;;;23.50;75.28;97837.28;10283719;28;20030;-48
2023/07/14 21:26:43;;;;;;;16.38;9.52;;;;;;;23.46;75.04;97838.34;10282827;28;20622;-52
2023/07/14 21:31:42;;;;;;;22.52;10.43;;;;;;;23.31;74.95;97829.41;10282883;28;20564;-53
2023/07/14 21:36:42;;;;;;;13.60;9.82;;;;;;;23.31;75.19;97839.16;10283494;28;20140;-53
2023/07/14 21:41:42;;;;;;;13.68;9.40;;;;;;;23.22;75.00;97838.69;10282604;28;20076;-51
2023/07/14 21:46:43;;;;;;;13.88;9.90;;;;;;;23.21;74.95;97842.28;10283384;28;20074;-53
2023/07/14 21:51:43;;;;;;;13.93;9.27;;;;;;;23.14;75.01;97837.34;10281968;28;20061;-52
2023/07/14 21:56:44;;;;;;;14.90;10.20;;;;;;;23.00;74.90;97824.84;10282512;28;20089;-51
2023/07/14 22:01:45;;;;;;;15.85;11.32;;;;;;;23.02;75.18;97839.69;10282257;28;20129;-50
2023/07/14 22:06:46;;;;;;;26.95;14.48;;;;;;;22.97;78.02;97840.84;10280602;28;20157;-51
2023/07/14 22:11:46;;;;;;;25.70;14.32;;;;;;;22.62;79.01;97809.00;10289377;28;20735;-53
2023/07/14 22:16:45;;;;;;;24.00;13.45;;;;;;;22.64;79.33;97815.09;10286356;28;20150;-50
2023/07/14 22:21:45;;;;;;;20.25;12.48;;;;;;;22.79;79.94;97843.47;10282602;28;20108;-49
2023/07/14 22:26:44;;;;;;;16.33;11.35;;;;;;;22.54;79.99;97805.91;10283372;28;20122;-53
2023/07/14 22:31:45;;;;;;;18.30;12.50;;;;;;;22.73;80.00;97838.44;10285264;28;20125;-50
2023/07/14 22:36:44;;;;;;;18.83;12.23;;;;;;;22.70;80.90;97837.75;10288748;28;20587;-50
2023/07/14 22:41:45;;;;;;;17.30;13.00;;;;;;;22.63;81.24;97831.06;10288513;28;20061;-52
2023/07/14 22:46:44;;;;;;;16.23;12.15;;;;;;;22.57;81.52;97821.59;10288893;28;20504;-52
2023/07/14 22:51:47;;;;;;;17.20;12.55;;;;;;;22.50;82.31;97820.19;10288060;28;20064;-51
2023/07/14 22:56:46;;;;;;;16.55;12.02;;;;;;;22.22;83.17;97795.06;10288323;28;20128;-51